Terminal Aerodrome Forecast
Issued by NWS

Home | Current Version | Previous Version | Text Only | Print | Product List | Glossary On
Versions: 1 2 3 4 5 6 7 8 9 10 11 12 13 14 15 16 17 18 19 20 21 22 23 24 25 26 27 28 29 30 31 32
000
FTUS45 KTWC 191647 AAA
TAFOLS
TAF AMD
KOLS 191647Z 1917/2012 18010KT P6SM VCSH SCT025 OVC060
      TEMPO 1917/1919 -SHRA BKN025 OVC060
     FM191900 21013KT P6SM VCSH SCT030 BKN045
     FM192300 22012KT P6SM SCT030 BKN045
     FM200300 VRB03KT P6SM SCT040 SCT080=

USA.gov is the U.S. government's official web portal to all federal, state and local government web resources and services.